Time;durP1;ratioP1;P1;durP2;ratioP2;P2;SDS_P1;SDS_P2;PMS_P1;PMS_P2;Temp;Humidity;BMP_temperature;BMP_pressure;BME280_temperature;BME280_humidity;BME280_pressure;Samples;Min_cycle;Max_cycle;Signal;HPM_P1;HPM_P2
2022/12/16 00:00:09;;;;;;;30.38;10.30;;;0.30;99.90;;;;;;6165571;23;20018;-96
2022/12/16 00:02:43;;;;;;;29.88;11.27;;;0.00;99.90;;;;;;6150704;23;20036;-96
2022/12/16 00:05:38;;;;;;;27.35;9.57;;;-0.20;99.90;;;;;;6179105;23;20016;-96
2022/12/16 00:08:44;;;;;;;21.20;8.82;;;-0.40;99.90;;;;;;6169769;23;20028;-96
2022/12/16 00:11:43;;;;;;;21.17;9.25;;;-0.60;99.90;;;;;;6173716;23;20005;-96
2022/12/16 00:22:37;;;;;;;21.98;8.45;;;-0.40;99.90;;;;;;6132956;23;20029;31
2022/12/16 00:26:30;;;;;;;;;;;;;;;;;;;;;
2022/12/16 00:29:59;;;;;;;16.67;8.55;;;-0.70;99.90;;;;;;6182630;23;20027;-96
2022/12/16 00:37:31;;;;;;;;;;;;;;;;;;;;;
2022/12/16 00:41:09;;;;;;;19.33;8.35;;;-0.70;99.90;;;;;;6185671;23;20410;-96
2022/12/16 00:44:31;;;;;;;;;;;;;;;;;;;;;
2022/12/16 00:48:24;;;;;;;;;;;;;;;;;;;;;
2022/12/16 00:56:10;;;;;;;;;;;;;;;;;;;;;
2022/12/16 01:00:02;;;;;;;18.10;7.72;;;-0.50;99.90;;;;;;5887385;24;20024;-96
2022/12/16 01:03:33;;;;;;;;;;;;;;;;;;;;;
2022/12/16 01:06:58;;;;;;;11.52;6.35;;;-0.50;99.90;;;;;;5993307;23;20016;-96
2022/12/16 01:18:30;;;;;;;14.60;6.05;;;-0.40;99.90;;;;;;6031477;23;20052;-96
2022/12/16 01:21:58;;;;;;;;;;;-0.60;99.90;;;;;;6010237;23;20053;-95
2022/12/16 01:25:31;;;;;;;12.65;6.47;;;-0.60;99.90;;;;;;6187541;23;19923;-96
2022/12/16 01:29:07;;;;;;;17.88;7.35;;;-0.70;99.90;;;;;;6144747;23;20040;-96
2022/12/16 01:33:03;;;;;;;;;;;;;;;;;;;;;
2022/12/16 01:36:39;;;;;;;;;;;;;;;;;;;;;
2022/12/16 01:51:20;;;;;;;16.73;7.18;;;-0.70;99.90;;;;;;6211817;23;20039;-96
2022/12/16 01:54:43;;;;;;;16.45;6.78;;;-0.80;99.90;;;;;;6161265;23;19989;-96
2022/12/16 01:58:30;;;;;;;15.82;6.97;;;-0.90;99.90;;;;;;6153262;23;20021;-96
2022/12/16 02:30:00;;;;;;;16.30;6.43;;;-0.90;99.90;;;;;;6171414;23;20037;-96
2022/12/16 02:32:59;;;;;;;12.13;6.60;;;-0.80;99.90;;;;;;6030535;23;20005;-96
2022/12/16 02:36:29;;;;;;;12.88;5.97;;;-0.80;99.90;;;;;;6156900;23;20013;-96
2022/12/16 02:39:45;;;;;;;13.77;6.18;;;-0.70;99.90;;;;;;6163387;23;20012;-96
2022/12/16 02:42:52;;;;;;;10.45;6.25;;;-0.70;99.90;;;;;;6157308;23;20009;-96
2022/12/16 02:45:29;;;;;;;11.43;5.82;;;-0.70;99.90;;;;;;6122002;23;20076;-96
2022/12/16 02:48:00;;;;;;;13.32;5.90;;;-0.70;99.90;;;;;;6137338;23;20001;-96
2022/12/16 02:51:00;;;;;;;15.73;6.38;;;-0.60;99.90;;;;;;6137471;23;20041;-95
2022/12/16 02:53:27;;;;;;;13.80;6.25;;;-0.60;99.90;;;;;;6126059;23;20056;-95
2022/12/16 02:56:17;;;;;;;13.15;6.35;;;-0.70;99.90;;;;;;6129205;23;20252;-96
2022/12/16 02:59:06;;;;;;;16.02;6.30;;;-0.70;99.90;;;;;;6123826;23;20508;-94
2022/12/16 03:01:50;;;;;;;16.20;6.88;;;-0.70;99.90;;;;;;6142856;23;20016;-95
2022/12/16 03:04:49;;;;;;;18.08;6.47;;;-0.80;99.90;;;;;;6141693;23;20016;-95
2022/12/16 03:07:23;;;;;;;12.43;6.13;;;-0.80;99.90;;;;;;6141063;23;20013;-95
2022/12/16 03:10:16;;;;;;;12.85;6.75;;;-0.80;99.90;;;;;;6136448;23;20016;-94
2022/12/16 03:12:50;;;;;;;17.25;6.68;;;-0.70;99.90;;;;;;6140609;23;20009;-94
2022/12/16 03:16:07;;;;;;;;;;;;;;;;;;;;;
2022/12/16 03:18:45;;;;;;;15.05;6.63;;;-0.40;99.90;;;;;;6140416;23;20059;-92
2022/12/16 03:21:19;;;;;;;16.00;5.90;;;-0.40;99.90;;;;;;6139606;23;20009;-92
2022/12/16 03:23:57;;;;;;;15.95;6.88;;;-0.40;99.90;;;;;;6117954;23;20014;-93
2022/12/16 03:26:57;;;;;;;18.05;7.28;;;-0.40;99.90;;;;;;6140802;23;20013;-93
2022/12/16 03:29:35;;;;;;;15.13;7.03;;;-0.50;99.90;;;;;;6140263;23;20005;-93
2022/12/16 03:32:22;;;;;;;15.85;7.05;;;-0.50;99.90;;;;;;6140652;23;20016;-93
2022/12/16 03:35:00;;;;;;;15.13;6.65;;;-0.70;99.90;;;;;;6139893;23;20020;-93
2022/12/16 03:37:42;;;;;;;;;;;;;;;;;;;;;
2022/12/16 03:40:21;;;;;;;14.63;6.63;;;-1.10;99.90;;;;;;6164587;23;20304;-91
2022/12/16 03:42:51;;;;;;;15.13;7.13;;;-1.00;99.90;;;;;;6115846;23;20386;-92
2022/12/16 03:45:44;;;;;;;19.13;8.60;;;-0.90;99.90;;;;;;6140376;23;20272;-91
2022/12/16 03:48:24;;;;;;;19.65;7.90;;;-0.80;99.90;;;;;;6140580;23;20005;-92
2022/12/16 03:50:55;;;;;;;18.27;8.07;;;-0.60;99.90;;;;;;6139380;23;20005;-90
2022/12/16 03:53:31;;;;;;;19.63;7.68;;;-0.50;99.90;;;;;;6139577;23;20426;-92
2022/12/16 03:56:22;;;;;;;;;;;;;;;;;;;;;
2022/12/16 03:59:07;;;;;;;18.30;7.45;;;-0.20;99.90;;;;;;6118073;23;20013;-91
2022/12/16 04:01:36;;;;;;;13.07;7.53;;;0.00;99.90;;;;;;6140861;23;20068;-91
2022/12/16 04:04:05;;;;;;;18.15;8.05;;;0.00;99.90;;;;;;6116863;23;20084;-92
2022/12/16 04:06:34;;;;;;;13.45;7.90;;;0.10;99.90;;;;;;6115898;23;20024;-92
2022/12/16 04:09:03;;;;;;;14.00;8.45;;;0.10;99.90;;;;;;6094269;23;20005;-91
2022/12/16 04:25:50;;;;;;;14.30;8.48;;;0.20;99.90;;;;;;6165586;23;20019;-90
2022/12/16 04:28:24;;;;;;;13.10;8.10;;;0.20;99.90;;;;;;6142154;23;20009;-91
2022/12/16 04:30:55;;;;;;;17.77;8.57;;;0.30;99.90;;;;;;6140887;23;20125;-91
